sensor_id;sensor_type;location;lat;lon;timestamp;P1;durP1;ratioP1;P2;durP2;ratioP2
33644;SDS011;19986;48.190;16.366;2023-04-24T00:00:16;41.50;;;39.30;;
33644;SDS011;19986;48.190;16.366;2023-04-24T00:02:43;40.03;;;37.92;;
33644;SDS011;19986;48.190;16.366;2023-04-24T00:05:16;39.70;;;37.50;;
33644;SDS011;19986;48.190;16.366;2023-04-24T00:07:45;41.47;;;39.20;;
33644;SDS011;19986;48.190;16.366;2023-04-24T00:10:11;39.60;;;37.53;;
33644;SDS011;19986;48.190;16.366;2023-04-24T00:12:37;39.55;;;37.40;;
33644;SDS011;19986;48.190;16.366;2023-04-24T00:15:03;42.17;;;39.78;;
33644;SDS011;19986;48.190;16.366;2023-04-24T00:17:30;39.15;;;37.13;;
33644;SDS011;19986;48.190;16.366;2023-04-24T00:19:56;40.35;;;38.17;;
33644;SDS011;19986;48.190;16.366;2023-04-24T00:22:27;42.72;;;40.28;;
33644;SDS011;19986;48.190;16.366;2023-04-24T00:24:53;40.70;;;38.35;;
33644;SDS011;19986;48.190;16.366;2023-04-24T00:27:20;41.40;;;38.90;;
33644;SDS011;19986;48.190;16.366;2023-04-24T00:29:46;40.13;;;37.88;;
33644;SDS011;19986;48.190;16.366;2023-04-24T00:32:12;40.78;;;38.60;;
33644;SDS011;19986;48.190;16.366;2023-04-24T00:34:39;39.35;;;37.15;;
33644;SDS011;19986;48.190;16.366;2023-04-24T00:37:05;40.25;;;38.05;;
33644;SDS011;19986;48.190;16.366;2023-04-24T00:39:31;41.53;;;39.42;;
33644;SDS011;19986;48.190;16.366;2023-04-24T00:41:57;41.33;;;39.03;;
33644;SDS011;19986;48.190;16.366;2023-04-24T00:44:23;41.03;;;38.72;;
33644;SDS011;19986;48.190;16.366;2023-04-24T00:46:49;39.20;;;37.00;;
33644;SDS011;19986;48.190;16.366;2023-04-24T00:49:20;40.22;;;38.03;;
33644;SDS011;19986;48.190;16.366;2023-04-24T00:51:49;41.35;;;39.05;;
33644;SDS011;19986;48.190;16.366;2023-04-24T00:54:16;39.97;;;37.75;;
33644;SDS011;19986;48.190;16.366;2023-04-24T00:56:43;40.92;;;38.72;;
33644;SDS011;19986;48.190;16.366;2023-04-24T00:59:10;40.85;;;38.45;;
33644;SDS011;19986;48.190;16.366;2023-04-24T01:01:37;41.45;;;39.20;;
33644;SDS011;19986;48.190;16.366;2023-04-24T01:04:07;41.60;;;39.40;;
33644;SDS011;19986;48.190;16.366;2023-04-24T01:06:35;40.88;;;38.35;;
33644;SDS011;19986;48.190;16.366;2023-04-24T01:09:05;42.40;;;39.45;;
33644;SDS011;19986;48.190;16.366;2023-04-24T01:11:35;42.83;;;39.75;;
33644;SDS011;19986;48.190;16.366;2023-04-24T01:14:02;42.20;;;39.60;;
33644;SDS011;19986;48.190;16.366;2023-04-24T01:16:28;41.30;;;38.78;;
33644;SDS011;19986;48.190;16.366;2023-04-24T01:18:54;39.70;;;37.20;;
33644;SDS011;19986;48.190;16.366;2023-04-24T01:21:20;42.40;;;39.85;;
33644;SDS011;19986;48.190;16.366;2023-04-24T01:23:46;41.65;;;39.25;;
33644;SDS011;19986;48.190;16.366;2023-04-24T01:26:13;40.50;;;38.40;;
33644;SDS011;19986;48.190;16.366;2023-04-24T01:28:41;40.13;;;38.03;;
33644;SDS011;19986;48.190;16.366;2023-04-24T01:31:07;42.10;;;39.67;;
33644;SDS011;19986;48.190;16.366;2023-04-24T01:33:33;42.97;;;40.58;;
33644;SDS011;19986;48.190;16.366;2023-04-24T01:36:00;41.40;;;39.10;;
33644;SDS011;19986;48.190;16.366;2023-04-24T01:38:26;42.25;;;39.85;;
33644;SDS011;19986;48.190;16.366;2023-04-24T01:40:52;39.25;;;37.05;;
33644;SDS011;19986;48.190;16.366;2023-04-24T01:43:18;41.92;;;39.63;;
33644;SDS011;19986;48.190;16.366;2023-04-24T01:45:44;39.92;;;37.58;;
33644;SDS011;19986;48.190;16.366;2023-04-24T01:48:13;42.38;;;39.97;;
33644;SDS011;19986;48.190;16.366;2023-04-24T01:50:39;42.30;;;40.00;;
33644;SDS011;19986;48.190;16.366;2023-04-24T01:53:05;41.40;;;39.08;;
33644;SDS011;19986;48.190;16.366;2023-04-24T01:55:31;41.75;;;39.35;;
33644;SDS011;19986;48.190;16.366;2023-04-24T01:57:57;42.85;;;40.35;;
33644;SDS011;19986;48.190;16.366;2023-04-24T02:00:25;40.58;;;38.13;;
33644;SDS011;19986;48.190;16.366;2023-04-24T02:02:51;39.38;;;37.08;;
33644;SDS011;19986;48.190;16.366;2023-04-24T02:05:18;40.60;;;38.40;;
33644;SDS011;19986;48.190;16.366;2023-04-24T02:07:45;42.22;;;39.85;;
33644;SDS011;19986;48.190;16.366;2023-04-24T02:10:11;42.42;;;40.00;;
33644;SDS011;19986;48.190;16.366;2023-04-24T02:12:37;40.53;;;38.33;;
33644;SDS011;19986;48.190;16.366;2023-04-24T02:15:03;41.30;;;39.10;;
33644;SDS011;19986;48.190;16.366;2023-04-24T02:17:29;41.15;;;39.00;;
33644;SDS011;19986;48.190;16.366;2023-04-24T02:19:56;40.75;;;38.45;;
33644;SDS011;19986;48.190;16.366;2023-04-24T02:22:22;39.25;;;37.15;;
33644;SDS011;19986;48.190;16.366;2023-04-24T02:24:47;39.47;;;37.45;;
33644;SDS011;19986;48.190;16.366;2023-04-24T02:27:13;39.67;;;37.67;;
33644;SDS011;19986;48.190;16.366;2023-04-24T02:29:40;37.90;;;35.92;;
33644;SDS011;19986;48.190;16.366;2023-04-24T02:32:07;39.60;;;37.72;;
33644;SDS011;19986;48.190;16.366;2023-04-24T02:34:37;41.47;;;39.38;;
33644;SDS011;19986;48.190;16.366;2023-04-24T02:37:06;38.33;;;36.42;;
33644;SDS011;19986;48.190;16.366;2023-04-24T02:39:35;39.45;;;37.50;;
33644;SDS011;19986;48.190;16.366;2023-04-24T02:42:01;39.70;;;37.15;;
33644;SDS011;19986;48.190;16.366;2023-04-24T02:44:28;39.67;;;37.60;;
33644;SDS011;19986;48.190;16.366;2023-04-24T02:46:54;38.20;;;36.20;;
33644;SDS011;19986;48.190;16.366;2023-04-24T02:49:20;37.88;;;35.97;;
33644;SDS011;19986;48.190;16.366;2023-04-24T02:51:47;40.90;;;38.80;;
33644;SDS011;19986;48.190;16.366;2023-04-24T02:54:13;39.03;;;37.03;;
33644;SDS011;19986;48.190;16.366;2023-04-24T02:56:39;40.17;;;37.92;;
33644;SDS011;19986;48.190;16.366;2023-04-24T02:59:05;41.58;;;39.53;;
33644;SDS011;19986;48.190;16.366;2023-04-24T03:01:31;40.40;;;38.28;;
33644;SDS011;19986;48.190;16.366;2023-04-24T03:03:57;39.35;;;37.35;;
33644;SDS011;19986;48.190;16.366;2023-04-24T03:06:23;41.65;;;39.55;;
33644;SDS011;19986;48.190;16.366;2023-04-24T03:08:49;40.83;;;38.78;;
33644;SDS011;19986;48.190;16.366;2023-04-24T03:11:15;41.55;;;39.55;;
33644;SDS011;19986;48.190;16.366;2023-04-24T03:13:41;39.50;;;37.53;;
33644;SDS011;19986;48.190;16.366;2023-04-24T03:16:07;38.67;;;36.65;;
33644;SDS011;19986;48.190;16.366;2023-04-24T03:18:33;39.05;;;37.08;;
33644;SDS011;19986;48.190;16.366;2023-04-24T03:20:58;38.85;;;37.00;;
33644;SDS011;19986;48.190;16.366;2023-04-24T03:23:25;38.75;;;36.80;;
33644;SDS011;19986;48.190;16.366;2023-04-24T03:25:51;39.30;;;36.63;;
33644;SDS011;19986;48.190;16.366;2023-04-24T03:28:17;41.15;;;38.75;;
33644;SDS011;19986;48.190;16.366;2023-04-24T03:30:43;40.90;;;38.78;;
33644;SDS011;19986;48.190;16.366;2023-04-24T03:33:08;37.78;;;35.88;;
33644;SDS011;19986;48.190;16.366;2023-04-24T03:35:35;40.58;;;38.47;;
33644;SDS011;19986;48.190;16.366;2023-04-24T03:38:02;41.10;;;39.10;;
33644;SDS011;19986;48.190;16.366;2023-04-24T03:40:30;39.60;;;37.65;;
33644;SDS011;19986;48.190;16.366;2023-04-24T03:42:58;38.97;;;36.75;;
33644;SDS011;19986;48.190;16.366;2023-04-24T03:45:24;37.42;;;35.53;;
33644;SDS011;19986;48.190;16.366;2023-04-24T03:47:50;39.95;;;37.85;;
33644;SDS011;19986;48.190;16.366;2023-04-24T03:50:16;39.95;;;37.88;;
33644;SDS011;19986;48.190;16.366;2023-04-24T03:52:41;42.42;;;40.33;;
33644;SDS011;19986;48.190;16.366;2023-04-24T03:55:07;38.25;;;36.05;;
33644;SDS011;19986;48.190;16.366;2023-04-24T03:57:33;41.08;;;38.88;;
33644;SDS011;19986;48.190;16.366;2023-04-24T03:59:59;40.63;;;38.63;;
33644;SDS011;19986;48.190;16.366;2023-04-24T04:02:25;40.17;;;38.20;;
33644;SDS011;19986;48.190;16.366;2023-04-24T04:04:51;38.50;;;36.65;;
33644;SDS011;19986;48.190;16.366;2023-04-24T04:07:16;39.10;;;37.00;;
33644;SDS011;19986;48.190;16.366;2023-04-24T04:09:42;39.42;;;37.53;;
33644;SDS011;19986;48.190;16.366;2023-04-24T04:12:08;37.75;;;35.92;;
33644;SDS011;19986;48.190;16.366;2023-04-24T04:14:34;39.00;;;37.10;;
33644;SDS011;19986;48.190;16.366;2023-04-24T04:17:00;39.35;;;37.45;;
33644;SDS011;19986;48.190;16.366;2023-04-24T04:19:26;40.38;;;37.80;;
33644;SDS011;19986;48.190;16.366;2023-04-24T04:21:51;40.28;;;36.90;;
33644;SDS011;19986;48.190;16.366;2023-04-24T04:24:19;41.17;;;38.65;;
33644;SDS011;19986;48.190;16.366;2023-04-24T04:26:49;37.05;;;35.25;;
33644;SDS011;19986;48.190;16.366;2023-04-24T04:29:16;38.47;;;36.47;;
33644;SDS011;19986;48.190;16.366;2023-04-24T04:31:45;42.72;;;40.42;;
33644;SDS011;19986;48.190;16.366;2023-04-24T04:34:12;41.03;;;38.58;;
33644;SDS011;19986;48.190;16.366;2023-04-24T04:36:39;37.45;;;35.65;;
33644;SDS011;19986;48.190;16.366;2023-04-24T04:39:06;39.20;;;37.40;;
33644;SDS011;19986;48.190;16.366;2023-04-24T04:41:38;38.33;;;36.33;;
33644;SDS011;19986;48.190;16.366;2023-04-24T04:44:05;39.70;;;37.60;;
33644;SDS011;19986;48.190;16.366;2023-04-24T04:46:31;36.33;;;34.45;;
33644;SDS011;19986;48.190;16.366;2023-04-24T04:48:59;38.03;;;36.13;;
33644;SDS011;19986;48.190;16.366;2023-04-24T04:51:28;39.35;;;37.45;;
33644;SDS011;19986;48.190;16.366;2023-04-24T04:53:54;39.47;;;37.50;;
33644;SDS011;19986;48.190;16.366;2023-04-24T04:56:20;39.00;;;37.03;;
33644;SDS011;19986;48.190;16.366;2023-04-24T04:58:47;38.72;;;36.63;;
33644;SDS011;19986;48.190;16.366;2023-04-24T05:01:12;40.53;;;38.42;;
33644;SDS011;19986;48.190;16.366;2023-04-24T05:03:39;39.22;;;37.13;;
33644;SDS011;19986;48.190;16.366;2023-04-24T05:06:05;40.67;;;38.70;;
33644;SDS011;19986;48.190;16.366;2023-04-24T05:08:31;40.95;;;38.65;;
33644;SDS011;19986;48.190;16.366;2023-04-24T05:10:57;38.55;;;36.42;;
33644;SDS011;19986;48.190;16.366;2023-04-24T05:13:23;42.28;;;40.15;;
33644;SDS011;19986;48.190;16.366;2023-04-24T05:15:49;38.90;;;36.95;;
33644;SDS011;19986;48.190;16.366;2023-04-24T05:18:15;38.97;;;37.08;;
33644;SDS011;19986;48.190;16.366;2023-04-24T05:20:41;38.58;;;36.42;;
33644;SDS011;19986;48.190;16.366;2023-04-24T05:23:09;36.83;;;35.05;;
33644;SDS011;19986;48.190;16.366;2023-04-24T05:25:35;41.28;;;39.08;;
33644;SDS011;19986;48.190;16.366;2023-04-24T05:28:01;39.65;;;37.75;;
33644;SDS011;19986;48.190;16.366;2023-04-24T05:30:28;39.28;;;37.38;;
33644;SDS011;19986;48.190;16.366;2023-04-24T05:32:53;39.05;;;36.80;;
33644;SDS011;19986;48.190;16.366;2023-04-24T05:35:19;38.45;;;36.55;;
33644;SDS011;19986;48.190;16.366;2023-04-24T05:37:45;39.85;;;37.65;;
33644;SDS011;19986;48.190;16.366;2023-04-24T05:40:11;37.63;;;35.55;;
33644;SDS011;19986;48.190;16.366;2023-04-24T05:42:37;37.35;;;35.53;;
33644;SDS011;19986;48.190;16.366;2023-04-24T05:45:03;39.45;;;37.45;;
33644;SDS011;19986;48.190;16.366;2023-04-24T05:47:29;38.08;;;36.28;;
33644;SDS011;19986;48.190;16.366;2023-04-24T05:49:55;38.17;;;36.13;;
33644;SDS011;19986;48.190;16.366;2023-04-24T05:52:21;37.40;;;35.60;;
33644;SDS011;19986;48.190;16.366;2023-04-24T05:54:47;36.85;;;35.03;;
33644;SDS011;19986;48.190;16.366;2023-04-24T05:57:13;39.30;;;37.35;;
33644;SDS011;19986;48.190;16.366;2023-04-24T05:59:38;39.65;;;37.35;;
33644;SDS011;19986;48.190;16.366;2023-04-24T06:02:05;39.53;;;37.47;;
33644;SDS011;19986;48.190;16.366;2023-04-24T06:04:32;40.70;;;38.35;;
33644;SDS011;19986;48.190;16.366;2023-04-24T06:06:58;38.83;;;37.00;;
33644;SDS011;19986;48.190;16.366;2023-04-24T06:09:25;36.35;;;34.45;;
33644;SDS011;19986;48.190;16.366;2023-04-24T06:11:51;39.00;;;36.58;;
33644;SDS011;19986;48.190;16.366;2023-04-24T06:14:19;39.10;;;37.05;;
33644;SDS011;19986;48.190;16.366;2023-04-24T06:16:45;38.72;;;36.42;;
33644;SDS011;19986;48.190;16.366;2023-04-24T06:19:11;38.75;;;36.85;;
33644;SDS011;19986;48.190;16.366;2023-04-24T06:21:37;38.50;;;36.35;;
33644;SDS011;19986;48.190;16.366;2023-04-24T06:24:02;37.55;;;35.70;;
33644;SDS011;19986;48.190;16.366;2023-04-24T06:26:29;37.63;;;35.53;;
33644;SDS011;19986;48.190;16.366;2023-04-24T06:28:55;37.97;;;36.08;;
33644;SDS011;19986;48.190;16.366;2023-04-24T06:31:23;39.92;;;37.63;;
33644;SDS011;19986;48.190;16.366;2023-04-24T06:33:49;37.30;;;35.40;;
33644;SDS011;19986;48.190;16.366;2023-04-24T06:36:15;37.75;;;35.65;;
33644;SDS011;19986;48.190;16.366;2023-04-24T06:38:41;38.28;;;36.28;;
33644;SDS011;19986;48.190;16.366;2023-04-24T06:41:09;40.58;;;38.42;;
33644;SDS011;19986;48.190;16.366;2023-04-24T06:43:35;37.90;;;35.88;;
33644;SDS011;19986;48.190;16.366;2023-04-24T06:46:01;39.50;;;37.50;;
33644;SDS011;19986;48.190;16.366;2023-04-24T06:48:28;35.20;;;33.40;;
33644;SDS011;19986;48.190;16.366;2023-04-24T06:50:54;39.65;;;37.22;;
33644;SDS011;19986;48.190;16.366;2023-04-24T06:53:20;38.90;;;36.80;;
33644;SDS011;19986;48.190;16.366;2023-04-24T06:55:46;37.67;;;35.70;;
33644;SDS011;19986;48.190;16.366;2023-04-24T06:58:12;37.72;;;35.70;;
33644;SDS011;19986;48.190;16.366;2023-04-24T07:00:38;37.67;;;35.67;;
33644;SDS011;19986;48.190;16.366;2023-04-24T07:03:04;37.63;;;35.80;;
33644;SDS011;19986;48.190;16.366;2023-04-24T07:05:31;38.13;;;35.97;;
33644;SDS011;19986;48.190;16.366;2023-04-24T07:07:58;36.15;;;34.35;;
33644;SDS011;19986;48.190;16.366;2023-04-24T07:10:25;37.58;;;35.67;;
33644;SDS011;19986;48.190;16.366;2023-04-24T07:12:54;37.08;;;35.28;;
33644;SDS011;19986;48.190;16.366;2023-04-24T07:15:21;36.85;;;35.08;;
33644;SDS011;19986;48.190;16.366;2023-04-24T07:17:48;37.40;;;35.17;;
33644;SDS011;19986;48.190;16.366;2023-04-24T07:20:14;35.20;;;33.50;;
33644;SDS011;19986;48.190;16.366;2023-04-24T07:22:40;38.20;;;36.22;;
33644;SDS011;19986;48.190;16.366;2023-04-24T07:25:06;36.35;;;34.42;;
33644;SDS011;19986;48.190;16.366;2023-04-24T07:27:34;37.13;;;34.95;;
33644;SDS011;19986;48.190;16.366;2023-04-24T07:30:00;38.88;;;36.67;;
33644;SDS011;19986;48.190;16.366;2023-04-24T07:32:26;36.22;;;34.33;;
33644;SDS011;19986;48.190;16.366;2023-04-24T07:34:51;36.65;;;34.95;;
33644;SDS011;19986;48.190;16.366;2023-04-24T07:37:17;35.95;;;34.25;;
33644;SDS011;19986;48.190;16.366;2023-04-24T07:39:43;35.17;;;33.47;;
33644;SDS011;19986;48.190;16.366;2023-04-24T07:42:10;36.55;;;34.55;;
33644;SDS011;19986;48.190;16.366;2023-04-24T07:44:36;35.25;;;33.38;;
33644;SDS011;19986;48.190;16.366;2023-04-24T07:47:01;36.88;;;35.00;;
33644;SDS011;19986;48.190;16.366;2023-04-24T07:49:28;38.38;;;35.83;;
33644;SDS011;19986;48.190;16.366;2023-04-24T07:51:54;36.33;;;34.55;;
33644;SDS011;19986;48.190;16.366;2023-04-24T07:54:20;36.50;;;34.80;;
33644;SDS011;19986;48.190;16.366;2023-04-24T07:56:46;35.15;;;33.20;;
33644;SDS011;19986;48.190;16.366;2023-04-24T07:59:11;36.33;;;34.15;;
33644;SDS011;19986;48.190;16.366;2023-04-24T08:01:37;35.20;;;32.67;;
33644;SDS011;19986;48.190;16.366;2023-04-24T08:04:03;35.38;;;33.47;;
33644;SDS011;19986;48.190;16.366;2023-04-24T08:06:30;37.03;;;35.22;;
33644;SDS011;19986;48.190;16.366;2023-04-24T08:08:57;34.08;;;32.30;;
33644;SDS011;19986;48.190;16.366;2023-04-24T08:11:25;34.50;;;32.80;;
33644;SDS011;19986;48.190;16.366;2023-04-24T08:13:51;36.33;;;34.58;;
33644;SDS011;19986;48.190;16.366;2023-04-24T08:16:17;33.92;;;32.35;;
33644;SDS011;19986;48.190;16.366;2023-04-24T08:18:43;37.92;;;35.95;;
33644;SDS011;19986;48.190;16.366;2023-04-24T08:21:08;36.47;;;34.47;;
33644;SDS011;19986;48.190;16.366;2023-04-24T08:23:34;35.90;;;33.90;;
33644;SDS011;19986;48.190;16.366;2023-04-24T08:26:00;35.47;;;33.55;;
33644;SDS011;19986;48.190;16.366;2023-04-24T08:28:26;34.22;;;32.42;;
33644;SDS011;19986;48.190;16.366;2023-04-24T08:30:52;37.53;;;35.03;;
33644;SDS011;19986;48.190;16.366;2023-04-24T08:33:23;35.22;;;33.53;;
33644;SDS011;19986;48.190;16.366;2023-04-24T08:35:49;34.70;;;33.10;;
33644;SDS011;19986;48.190;16.366;2023-04-24T08:38:15;37.22;;;35.38;;
33644;SDS011;19986;48.190;16.366;2023-04-24T08:40:41;36.85;;;35.05;;
33644;SDS011;19986;48.190;16.366;2023-04-24T08:43:08;37.55;;;35.63;;
33644;SDS011;19986;48.190;16.366;2023-04-24T08:45:35;37.15;;;35.35;;
33644;SDS011;19986;48.190;16.366;2023-04-24T08:48:02;36.65;;;34.85;;
33644;SDS011;19986;48.190;16.366;2023-04-24T08:50:29;37.38;;;35.38;;
33644;SDS011;19986;48.190;16.366;2023-04-24T08:52:57;36.67;;;34.97;;
33644;SDS011;19986;48.190;16.366;2023-04-24T08:55:23;34.17;;;32.17;;
33644;SDS011;19986;48.190;16.366;2023-04-24T08:57:51;35.88;;;34.00;;
33644;SDS011;19986;48.190;16.366;2023-04-24T09:00:19;35.45;;;33.75;;
33644;SDS011;19986;48.190;16.366;2023-04-24T09:02:46;35.88;;;34.10;;
33644;SDS011;19986;48.190;16.366;2023-04-24T09:05:16;35.80;;;34.20;;
33644;SDS011;19986;48.190;16.366;2023-04-24T09:07:53;36.72;;;34.90;;
33644;SDS011;19986;48.190;16.366;2023-04-24T09:10:21;35.08;;;33.47;;
33644;SDS011;19986;48.190;16.366;2023-04-24T09:12:48;35.08;;;33.38;;
33644;SDS011;19986;48.190;16.366;2023-04-24T09:15:16;37.10;;;35.35;;
33644;SDS011;19986;48.190;16.366;2023-04-24T09:17:43;36.17;;;34.58;;
33644;SDS011;19986;48.190;16.366;2023-04-24T09:20:10;36.97;;;35.20;;
33644;SDS011;19986;48.190;16.366;2023-04-24T09:22:36;36.17;;;34.40;;
33644;SDS011;19986;48.190;16.366;2023-04-24T09:25:02;36.42;;;34.78;;
33644;SDS011;19986;48.190;16.366;2023-04-24T09:27:30;35.88;;;34.25;;
33644;SDS011;19986;48.190;16.366;2023-04-24T09:29:57;35.55;;;33.95;;
33644;SDS011;19986;48.190;16.366;2023-04-24T09:32:24;37.33;;;35.55;;
33644;SDS011;19986;48.190;16.366;2023-04-24T09:37:40;37.10;;;35.33;;
33644;SDS011;19986;48.190;16.366;2023-04-24T09:42:54;36.53;;;34.92;;
33644;SDS011;19986;48.190;16.366;2023-04-24T09:45:28;38.38;;;36.55;;
33644;SDS011;19986;48.190;16.366;2023-04-24T09:48:04;37.15;;;35.33;;
33644;SDS011;19986;48.190;16.366;2023-04-24T09:50:31;36.78;;;35.08;;
33644;SDS011;19986;48.190;16.366;2023-04-24T09:52:58;37.95;;;36.15;;
33644;SDS011;19986;48.190;16.366;2023-04-24T09:55:26;37.58;;;35.80;;
33644;SDS011;19986;48.190;16.366;2023-04-24T09:58:02;36.92;;;35.33;;
33644;SDS011;19986;48.190;16.366;2023-04-24T10:00:31;36.17;;;34.47;;
33644;SDS011;19986;48.190;16.366;2023-04-24T10:02:58;37.15;;;35.40;;
33644;SDS011;19986;48.190;16.366;2023-04-24T10:07:57;36.95;;;35.25;;
33644;SDS011;19986;48.190;16.366;2023-04-24T10:10:44;37.67;;;35.97;;
33644;SDS011;19986;48.190;16.366;2023-04-24T10:13:11;35.55;;;33.95;;
33644;SDS011;19986;48.190;16.366;2023-04-24T10:15:39;36.67;;;35.05;;
33644;SDS011;19986;48.190;16.366;2023-04-24T10:18:06;36.13;;;34.53;;
33644;SDS011;19986;48.190;16.366;2023-04-24T10:20:34;37.85;;;36.15;;
33644;SDS011;19986;48.190;16.366;2023-04-24T10:23:01;34.60;;;33.00;;
33644;SDS011;19986;48.190;16.366;2023-04-24T10:25:31;37.55;;;35.75;;
33644;SDS011;19986;48.190;16.366;2023-04-24T10:27:59;36.28;;;34.53;;
33644;SDS011;19986;48.190;16.366;2023-04-24T10:30:26;35.97;;;34.38;;
33644;SDS011;19986;48.190;16.366;2023-04-24T10:32:53;37.60;;;36.00;;
33644;SDS011;19986;48.190;16.366;2023-04-24T10:35:20;35.92;;;34.22;;
33644;SDS011;19986;48.190;16.366;2023-04-24T10:37:56;36.85;;;35.03;;
33644;SDS011;19986;48.190;16.366;2023-04-24T10:40:32;36.67;;;35.05;;
33644;SDS011;19986;48.190;16.366;2023-04-24T10:42:59;38.25;;;36.55;;
33644;SDS011;19986;48.190;16.366;2023-04-24T10:45:28;36.05;;;34.45;;
33644;SDS011;19986;48.190;16.366;2023-04-24T10:47:58;36.83;;;34.92;;
33644;SDS011;19986;48.190;16.366;2023-04-24T10:50:28;36.60;;;34.92;;
33644;SDS011;19986;48.190;16.366;2023-04-24T10:53:07;36.58;;;34.92;;
33644;SDS011;19986;48.190;16.366;2023-04-24T10:56:15;37.28;;;35.67;;
33644;SDS011;19986;48.190;16.366;2023-04-24T10:58:42;38.72;;;36.63;;
33644;SDS011;19986;48.190;16.366;2023-04-24T11:01:31;38.22;;;36.35;;
33644;SDS011;19986;48.190;16.366;2023-04-24T11:03:58;34.83;;;33.17;;
33644;SDS011;19986;48.190;16.366;2023-04-24T11:06:32;35.67;;;34.00;;
33644;SDS011;19986;48.190;16.366;2023-04-24T11:09:09;37.25;;;35.53;;
33644;SDS011;19986;48.190;16.366;2023-04-24T11:11:38;36.95;;;35.25;;
33644;SDS011;19986;48.190;16.366;2023-04-24T11:14:13;38.83;;;37.03;;
33644;SDS011;19986;48.190;16.366;2023-04-24T11:16:53;37.38;;;35.67;;
33644;SDS011;19986;48.190;16.366;2023-04-24T11:19:23;38.50;;;36.67;;
33644;SDS011;19986;48.190;16.366;2023-04-24T11:22:00;36.00;;;34.20;;
33644;SDS011;19986;48.190;16.366;2023-04-24T11:35:05;38.88;;;36.78;;
33644;SDS011;19986;48.190;16.366;2023-04-24T11:40:04;36.70;;;35.00;;
33644;SDS011;19986;48.190;16.366;2023-04-24T11:42:35;37.45;;;35.65;;
33644;SDS011;19986;48.190;16.366;2023-04-24T11:45:06;38.70;;;36.67;;
33644;SDS011;19986;48.190;16.366;2023-04-24T11:47:36;36.40;;;34.70;;
33644;SDS011;19986;48.190;16.366;2023-04-24T11:50:04;35.50;;;33.80;;
33644;SDS011;19986;48.190;16.366;2023-04-24T11:52:33;35.60;;;33.95;;
33644;SDS011;19986;48.190;16.366;2023-04-24T11:55:04;35.83;;;34.22;;
33644;SDS011;19986;48.190;16.366;2023-04-24T11:57:31;38.25;;;36.45;;
33644;SDS011;19986;48.190;16.366;2023-04-24T12:00:02;38.00;;;36.28;;
33644;SDS011;19986;48.190;16.366;2023-04-24T12:02:30;38.58;;;36.78;;
33644;SDS011;19986;48.190;16.366;2023-04-24T12:04:56;37.00;;;35.30;;
33644;SDS011;19986;48.190;16.366;2023-04-24T12:07:22;35.42;;;33.65;;
33644;SDS011;19986;48.190;16.366;2023-04-24T12:09:54;37.78;;;36.03;;
33644;SDS011;19986;48.190;16.366;2023-04-24T12:12:23;39.70;;;37.70;;
33644;SDS011;19986;48.190;16.366;2023-04-24T12:14:55;35.90;;;34.20;;
33644;SDS011;19986;48.190;16.366;2023-04-24T12:17:32;34.42;;;32.83;;
33644;SDS011;19986;48.190;16.366;2023-04-24T12:19:59;37.60;;;35.90;;
33644;SDS011;19986;48.190;16.366;2023-04-24T12:25:13;38.58;;;36.67;;
33644;SDS011;19986;48.190;16.366;2023-04-24T12:27:40;38.25;;;36.28;;
33644;SDS011;19986;48.190;16.366;2023-04-24T12:30:10;39.70;;;37.60;;
33644;SDS011;19986;48.190;16.366;2023-04-24T12:32:46;36.15;;;34.35;;
33644;SDS011;19986;48.190;16.366;2023-04-24T12:35:18;36.95;;;35.25;;
33644;SDS011;19986;48.190;16.366;2023-04-24T12:37:46;38.20;;;36.25;;
33644;SDS011;19986;48.190;16.366;2023-04-24T12:40:12;34.40;;;32.80;;
33644;SDS011;19986;48.190;16.366;2023-04-24T12:42:57;35.88;;;34.15;;
33644;SDS011;19986;48.190;16.366;2023-04-24T12:45:22;36.28;;;34.58;;
33644;SDS011;19986;48.190;16.366;2023-04-24T12:47:50;37.55;;;35.75;;
33644;SDS011;19986;48.190;16.366;2023-04-24T12:50:16;36.55;;;34.75;;
33644;SDS011;19986;48.190;16.366;2023-04-24T12:52:42;38.58;;;36.78;;
33644;SDS011;19986;48.190;16.366;2023-04-24T12:55:09;37.47;;;35.78;;
33644;SDS011;19986;48.190;16.366;2023-04-24T12:57:35;36.78;;;35.08;;
33644;SDS011;19986;48.190;16.366;2023-04-24T13:00:02;36.88;;;35.08;;
33644;SDS011;19986;48.190;16.366;2023-04-24T13:02:30;37.65;;;35.83;;
33644;SDS011;19986;48.190;16.366;2023-04-24T13:04:57;36.50;;;34.60;;
33644;SDS011;19986;48.190;16.366;2023-04-24T13:07:23;37.63;;;35.83;;
33644;SDS011;19986;48.190;16.366;2023-04-24T13:09:50;36.03;;;34.08;;
33644;SDS011;19986;48.190;16.366;2023-04-24T13:12:17;38.95;;;37.00;;
33644;SDS011;19986;48.190;16.366;2023-04-24T13:14:43;35.95;;;34.05;;
33644;SDS011;19986;48.190;16.366;2023-04-24T13:17:09;35.08;;;33.22;;
33644;SDS011;19986;48.190;16.366;2023-04-24T13:19:37;37.35;;;35.65;;
33644;SDS011;19986;48.190;16.366;2023-04-24T13:22:04;36.22;;;34.53;;
33644;SDS011;19986;48.190;16.366;2023-04-24T13:24:30;36.75;;;34.75;;
33644;SDS011;19986;48.190;16.366;2023-04-24T13:26:57;37.55;;;35.63;;
33644;SDS011;19986;48.190;16.366;2023-04-24T13:29:23;38.22;;;36.33;;
33644;SDS011;19986;48.190;16.366;2023-04-24T13:31:50;37.33;;;35.63;;
33644;SDS011;19986;48.190;16.366;2023-04-24T13:34:16;37.50;;;35.80;;
33644;SDS011;19986;48.190;16.366;2023-04-24T13:36:43;36.92;;;34.97;;
33644;SDS011;19986;48.190;16.366;2023-04-24T13:39:09;37.17;;;35.15;;
33644;SDS011;19986;48.190;16.366;2023-04-24T13:41:35;37.13;;;35.28;;
33644;SDS011;19986;48.190;16.366;2023-04-24T13:44:02;37.95;;;36.15;;
33644;SDS011;19986;48.190;16.366;2023-04-24T13:46:29;37.60;;;35.75;;
33644;SDS011;19986;48.190;16.366;2023-04-24T13:48:56;37.53;;;35.40;;
33644;SDS011;19986;48.190;16.366;2023-04-24T13:51:23;37.38;;;35.60;;
33644;SDS011;19986;48.190;16.366;2023-04-24T13:53:51;37.15;;;35.35;;
33644;SDS011;19986;48.190;16.366;2023-04-24T13:56:17;38.20;;;35.75;;
33644;SDS011;19986;48.190;16.366;2023-04-24T13:58:44;38.00;;;36.00;;
33644;SDS011;19986;48.190;16.366;2023-04-24T14:01:10;38.08;;;36.28;;
33644;SDS011;19986;48.190;16.366;2023-04-24T14:03:37;34.95;;;33.35;;
33644;SDS011;19986;48.190;16.366;2023-04-24T14:06:03;37.25;;;35.40;;
33644;SDS011;19986;48.190;16.366;2023-04-24T14:08:28;38.67;;;36.78;;
33644;SDS011;19986;48.190;16.366;2023-04-24T14:10:54;37.20;;;35.25;;
33644;SDS011;19986;48.190;16.366;2023-04-24T14:13:20;36.95;;;35.25;;
33644;SDS011;19986;48.190;16.366;2023-04-24T14:15:46;38.80;;;36.90;;
33644;SDS011;19986;48.190;16.366;2023-04-24T14:18:12;38.22;;;36.42;;
33644;SDS011;19986;48.190;16.366;2023-04-24T14:20:38;37.92;;;36.10;;
33644;SDS011;19986;48.190;16.366;2023-04-24T14:23:04;36.50;;;34.80;;
33644;SDS011;19986;48.190;16.366;2023-04-24T14:25:30;37.17;;;35.38;;
33644;SDS011;19986;48.190;16.366;2023-04-24T14:27:55;38.25;;;36.35;;
33644;SDS011;19986;48.190;16.366;2023-04-24T14:30:21;37.08;;;35.28;;
33644;SDS011;19986;48.190;16.366;2023-04-24T14:32:48;36.55;;;34.85;;